Time;durP1;ratioP1;P1;durP2;ratioP2;P2;SDS_P1;SDS_P2;PMS_P1;PMS_P2;Temp;Humidity;BMP_temperature;BMP_pressure;BME280_temperature;BME280_humidity;BME280_pressure;Samples;Min_cycle;Max_cycle;Signal;HPM_P1;HPM_P2
2024/02/20 00:01:27;;;;;;;8.43;2.57;;;22.40;80.20;;;;;;4994847;28;20470;-68
2024/02/20 00:03:57;;;;;;;7.13;1.77;;;22.40;80.30;;;;;;5000637;28;20462;-71
2024/02/20 00:06:26;;;;;;;7.63;2.00;;;22.30;80.00;;;;;;4995155;28;20474;-72
2024/02/20 00:09:02;;;;;;;6.37;2.50;;;22.30;80.00;;;;;;5001689;28;21418;-72
2024/02/20 00:11:34;;;;;;;9.40;2.50;;;22.30;80.10;;;;;;5000761;28;20465;-70
2024/02/20 00:14:05;;;;;;;2.60;1.83;;;22.30;80.00;;;;;;5001738;28;20465;-68
2024/02/20 00:16:39;;;;;;;1.90;1.50;;;22.30;80.10;;;;;;4993197;28;20455;-69
2024/02/20 00:19:08;;;;;;;3.80;2.10;;;22.20;80.00;;;;;;4996758;28;21030;-73
2024/02/20 00:21:40;;;;;;;8.77;2.30;;;22.20;80.00;;;;;;5000375;28;20553;-70
2024/02/20 00:24:17;;;;;;;5.70;2.70;;;22.20;79.90;;;;;;5000503;28;20862;-71
2024/02/20 00:26:50;;;;;;;2.67;1.60;;;22.20;79.80;;;;;;4998083;28;20450;-69
2024/02/20 00:29:21;;;;;;;2.97;1.90;;;22.10;79.80;;;;;;5000696;28;20677;-69
2024/02/20 00:31:47;;;;;;;3.30;1.87;;;22.10;79.80;;;;;;5000218;28;20474;-70
2024/02/20 00:34:15;;;;;;;3.50;2.43;;;22.10;80.00;;;;;;4991259;28;20465;-70
2024/02/20 00:36:52;;;;;;;2.57;2.00;;;22.10;80.00;;;;;;4999503;28;20803;-73
2024/02/20 00:39:35;;;;;;;2.47;2.23;;;22.00;80.00;;;;;;5003534;28;20529;-71
2024/02/20 00:42:14;;;;;;;3.47;2.10;;;22.10;80.10;;;;;;4999478;28;20529;-73
2024/02/20 00:44:46;;;;;;;2.47;1.97;;;22.00;80.00;;;;;;5002480;28;21060;-69
2024/02/20 00:47:12;;;;;;;2.40;1.67;;;22.00;80.00;;;;;;4998574;28;20474;-67
2024/02/20 00:49:41;;;;;;;2.30;1.17;;;22.00;79.90;;;;;;4994736;28;20459;-67
2024/02/20 00:52:15;;;;;;;1.90;1.80;;;22.00;80.00;;;;;;4996264;28;20911;-74
2024/02/20 00:54:45;;;;;;;3.60;2.17;;;22.00;80.00;;;;;;4997937;28;20460;-75
2024/02/20 00:57:11;;;;;;;2.90;1.98;;;22.00;80.10;;;;;;4996654;28;20955;-71
2024/02/20 00:59:59;;;;;;;3.60;1.87;;;21.90;80.00;;;;;;4999670;28;20236;-69
2024/02/20 01:02:35;;;;;;;3.10;1.90;;;21.90;79.80;;;;;;4992520;28;20457;-72
2024/02/20 01:05:04;;;;;;;2.47;1.93;;;21.90;79.90;;;;;;4987380;28;20871;-75
2024/02/20 01:07:35;;;;;;;1.80;1.67;;;21.90;79.90;;;;;;4999256;28;21000;-71
2024/02/20 01:10:11;;;;;;;2.07;1.80;;;21.90;79.90;;;;;;5005500;28;21012;-75
2024/02/20 01:12:40;;;;;;;2.33;1.60;;;21.90;79.90;;;;;;4996600;28;20733;-73
2024/02/20 01:15:33;;;;;;;4.18;2.47;;;21.80;80.70;;;;;;4999883;28;20451;-69
2024/02/20 01:18:04;;;;;;;2.10;1.90;;;21.80;80.00;;;;;;5001562;28;20192;-72
2024/02/20 01:20:37;;;;;;;2.13;1.47;;;21.80;80.10;;;;;;5000684;28;21583;-69
2024/02/20 01:23:05;;;;;;;2.47;1.60;;;21.80;80.10;;;;;;5006695;28;20471;-73
2024/02/20 01:25:39;;;;;;;2.70;1.93;;;21.80;80.10;;;;;;5005123;28;20693;-66
2024/02/20 01:28:10;;;;;;;2.50;1.87;;;21.80;80.10;;;;;;4999925;28;20649;-75
2024/02/20 01:30:41;;;;;;;2.57;1.70;;;21.70;80.00;;;;;;4997303;28;20492;-67
2024/02/20 01:33:17;;;;;;;2.17;1.93;;;21.70;80.00;;;;;;4999006;28;20604;-69
2024/02/20 01:35:47;;;;;;;2.60;2.30;;;21.70;80.70;;;;;;4997924;28;20462;-65
2024/02/20 01:38:13;;;;;;;2.08;1.73;;;21.70;80.10;;;;;;4998886;28;20470;-68
2024/02/20 01:40:45;;;;;;;2.50;1.70;;;21.70;80.00;;;;;;5002852;28;20350;-70
2024/02/20 01:43:16;;;;;;;2.30;2.10;;;21.70;80.00;;;;;;4994876;28;20902;-68
2024/02/20 01:45:45;;;;;;;1.70;1.40;;;21.70;80.00;;;;;;4995960;28;20473;-70
2024/02/20 01:48:16;;;;;;;2.63;2.37;;;21.60;80.00;;;;;;5001491;28;20591;-72
2024/02/20 01:50:45;;;;;;;1.80;1.42;;;21.60;80.20;;;;;;4999550;28;20463;-74
2024/02/20 01:53:12;;;;;;;2.25;2.00;;;21.60;80.10;;;;;;4999869;28;20214;-74
2024/02/20 01:55:46;;;;;;;2.13;1.93;;;21.60;80.30;;;;;;5003708;28;20569;-66
2024/02/20 01:58:22;;;;;;;1.80;1.45;;;21.60;80.40;;;;;;4994070;28;20951;-70
2024/02/20 02:00:52;;;;;;;3.13;1.60;;;21.60;80.30;;;;;;4999187;28;20311;-69
2024/02/20 02:03:22;;;;;;;2.00;1.80;;;21.50;80.10;;;;;;5000984;28;20505;-71
2024/02/20 02:05:53;;;;;;;2.00;1.80;;;21.60;80.30;;;;;;4988311;28;20206;-69
2024/02/20 02:08:22;;;;;;;3.78;1.60;;;21.60;80.20;;;;;;4996185;28;20475;-68
2024/02/20 02:10:51;;;;;;;2.03;1.50;;;21.50;80.10;;;;;;5000306;28;20211;-73
2024/02/20 02:13:22;;;;;;;2.17;1.70;;;21.50;80.10;;;;;;4999165;28;20501;-67
2024/02/20 02:15:49;;;;;;;3.20;1.50;;;21.50;80.20;;;;;;4993363;28;20471;-71
2024/02/20 02:18:15;;;;;;;1.80;1.60;;;21.50;80.20;;;;;;5001156;28;20473;-72
2024/02/20 02:20:43;;;;;;;2.63;1.40;;;21.50;80.20;;;;;;4995346;28;20486;-72
2024/02/20 02:23:20;;;;;;;2.22;1.70;;;21.50;80.30;;;;;;5000115;28;20280;-67
2024/02/20 02:25:49;;;;;;;1.95;1.75;;;21.40;80.30;;;;;;4993566;28;21438;-68
2024/02/20 02:28:21;;;;;;;2.45;2.00;;;21.40;80.20;;;;;;5000655;28;20208;-68
2024/02/20 02:30:53;;;;;;;2.03;1.50;;;21.40;80.20;;;;;;4999260;28;20540;-72
2024/02/20 02:33:28;;;;;;;1.60;1.20;;;21.40;80.30;;;;;;4998528;28;20759;-72
2024/02/20 02:35:59;;;;;;;2.10;1.40;;;21.40;80.30;;;;;;5000515;28;20200;-70
2024/02/20 02:38:26;;;;;;;2.67;1.88;;;21.40;80.20;;;;;;4999745;28;20204;-68
2024/02/20 02:40:56;;;;;;;2.10;1.52;;;21.40;80.30;;;;;;4999778;28;21205;-68
2024/02/20 02:43:30;;;;;;;2.65;1.35;;;21.40;80.30;;;;;;4997751;28;20539;-70
2024/02/20 02:45:59;;;;;;;1.83;1.55;;;21.40;80.40;;;;;;4995570;28;20604;-69
2024/02/20 02:48:34;;;;;;;2.70;1.73;;;21.30;80.20;;;;;;4997623;28;20196;-69
2024/02/20 02:51:08;;;;;;;1.98;1.60;;;21.40;80.30;;;;;;4998910;28;20230;-69
2024/02/20 02:53:39;;;;;;;1.85;1.65;;;21.30;80.20;;;;;;4994445;28;20202;-70
2024/02/20 02:56:13;;;;;;;2.15;1.95;;;21.30;80.10;;;;;;4997658;28;20191;-67
2024/02/20 02:58:41;;;;;;;2.45;1.20;;;21.30;80.20;;;;;;4998663;28;20227;-73
2024/02/20 03:01:14;;;;;;;2.60;1.83;;;21.30;80.40;;;;;;4996635;28;20231;-70
2024/02/20 03:03:50;;;;;;;1.52;1.20;;;21.30;80.70;;;;;;4999987;28;20572;-69
2024/02/20 03:06:21;;;;;;;1.70;1.30;;;21.30;80.50;;;;;;4998413;28;20195;-72
2024/02/20 03:08:50;;;;;;;1.35;1.20;;;21.30;80.70;;;;;;5001568;28;20195;-69
2024/02/20 03:11:25;;;;;;;2.70;1.58;;;21.20;81.40;;;;;;4994885;28;20545;-70
2024/02/20 03:13:54;;;;;;;2.90;1.80;;;21.30;80.60;;;;;;4996953;28;20222;-67
2024/02/20 03:16:21;;;;;;;1.65;1.20;;;21.20;80.40;;;;;;4999000;28;20200;-67
2024/02/20 03:18:52;;;;;;;1.52;1.42;;;21.20;80.40;;;;;;4995378;28;20200;-69
2024/02/20 03:21:20;;;;;;;1.33;1.20;;;21.20;80.60;;;;;;4994425;28;20212;-74
2024/02/20 03:23:49;;;;;;;1.92;1.77;;;21.20;80.50;;;;;;4997429;28;20231;-68
2024/02/20 03:26:18;;;;;;;2.70;1.40;;;21.20;80.50;;;;;;4997637;28;20193;-69
2024/02/20 03:28:50;;;;;;;2.47;1.40;;;21.20;80.40;;;;;;4991656;28;20218;-70
2024/02/20 03:31:30;;;;;;;3.08;1.70;;;21.20;80.40;;;;;;4994806;28;20565;-66
2024/02/20 03:34:09;;;;;;;1.80;1.55;;;21.20;80.40;;;;;;4997739;28;20196;-74
2024/02/20 03:36:40;;;;;;;1.65;1.50;;;21.20;80.40;;;;;;4996593;28;20202;-73
2024/02/20 03:39:08;;;;;;;1.70;1.55;;;21.10;80.50;;;;;;4999905;28;20204;-73
2024/02/20 03:41:46;;;;;;;2.00;1.60;;;21.10;80.60;;;;;;5001869;28;20237;-71
2024/02/20 03:44:13;;;;;;;1.70;1.30;;;21.10;80.50;;;;;;4994487;28;20211;-73
2024/02/20 03:46:41;;;;;;;2.15;1.50;;;21.10;80.60;;;;;;4995297;28;20203;-74
2024/02/20 03:49:13;;;;;;;1.75;1.45;;;21.10;80.60;;;;;;4983993;28;20219;-70
2024/02/20 03:51:42;;;;;;;1.55;1.33;;;21.10;80.60;;;;;;4992257;28;20232;-68
2024/02/20 03:54:12;;;;;;;2.10;1.50;;;21.10;80.60;;;;;;4997706;28;20816;-66
2024/02/20 03:56:42;;;;;;;2.05;1.80;;;21.10;80.60;;;;;;4997173;28;20199;-66
2024/02/20 03:59:08;;;;;;;2.30;1.70;;;21.10;80.70;;;;;;4995591;28;20250;-74
2024/02/20 04:01:35;;;;;;;2.55;1.55;;;21.10;80.60;;;;;;4997923;28;20242;-69
2024/02/20 04:04:11;;;;;;;1.40;1.20;;;21.10;80.70;;;;;;4994043;28;20210;-72
2024/02/20 04:06:41;;;;;;;1.35;1.25;;;21.10;80.60;;;;;;4995709;28;20207;-73
2024/02/20 04:09:11;;;;;;;1.70;1.60;;;21.10;80.50;;;;;;4999281;28;20200;-72
2024/02/20 04:11:40;;;;;;;1.67;1.25;;;21.00;80.40;;;;;;4993698;28;20628;-72
2024/02/20 04:14:21;;;;;;;1.90;1.70;;;21.00;80.30;;;;;;4997634;28;20235;-66
2024/02/20 04:16:49;;;;;;;1.92;1.52;;;21.00;80.20;;;;;;4997037;28;20206;-75
2024/02/20 04:19:17;;;;;;;2.60;1.73;;;21.00;80.50;;;;;;4986182;28;20195;-69
2024/02/20 04:21:43;;;;;;;1.65;1.20;;;21.00;80.50;;;;;;4996516;28;20486;-67
2024/02/20 04:24:10;;;;;;;2.97;1.77;;;21.00;80.60;;;;;;4997808;28;20208;-70
2024/02/20 04:26:38;;;;;;;2.92;1.60;;;21.00;80.60;;;;;;4990642;28;20220;-68
2024/02/20 04:29:05;;;;;;;1.60;1.45;;;21.00;80.60;;;;;;4998561;28;20880;-65
2024/02/20 04:31:33;;;;;;;2.58;1.50;;;20.90;80.70;;;;;;4995558;28;20735;-69
2024/02/20 04:34:00;;;;;;;1.95;1.50;;;21.00;80.70;;;;;;4995008;28;20239;-72
2024/02/20 04:36:28;;;;;;;2.67;1.65;;;21.00;80.60;;;;;;4998108;28;20219;-70
2024/02/20 04:38:58;;;;;;;2.25;1.77;;;20.90;80.70;;;;;;4997349;28;20207;-69
2024/02/20 04:41:31;;;;;;;1.50;1.38;;;20.90;80.40;;;;;;4998012;28;20226;-67
2024/02/20 04:43:59;;;;;;;1.58;1.15;;;20.90;80.60;;;;;;4993367;28;20215;-66
2024/02/20 04:46:29;;;;;;;2.55;2.35;;;20.90;80.40;;;;;;4988146;28;20200;-69
2024/02/20 04:49:01;;;;;;;1.92;1.02;;;20.90;80.60;;;;;;5000086;28;20640;-69
2024/02/20 04:51:32;;;;;;;2.03;1.80;;;20.90;80.30;;;;;;5005817;28;20207;-72
2024/02/20 04:54:02;;;;;;;3.28;2.53;;;20.90;80.70;;;;;;5007661;28;20204;-67
2024/02/20 04:56:41;;;;;;;;;;;;;;;;;;;;;
2024/02/20 04:59:10;;;;;;;1.50;1.40;;;20.90;80.60;;;;;;5002768;28;20211;-71
2024/02/20 05:01:38;;;;;;;2.50;1.70;;;20.90;80.60;;;;;;5004557;28;20719;-68
2024/02/20 05:04:08;;;;;;;1.92;1.70;;;20.90;80.90;;;;;;4996228;28;20966;-71
2024/02/20 05:06:36;;;;;;;1.50;1.30;;;20.90;80.70;;;;;;4997544;28;20759;-69
2024/02/20 05:09:05;;;;;;;1.40;1.30;;;20.90;80.60;;;;;;4996313;28;20204;-70
2024/02/20 05:11:32;;;;;;;2.38;1.60;;;20.90;80.50;;;;;;4994964;28;20204;-67
2024/02/20 05:13:58;;;;;;;2.15;1.42;;;20.90;80.50;;;;;;5002648;28;20660;-69
2024/02/20 05:16:27;;;;;;;3.17;1.30;;;20.80;80.50;;;;;;4996335;28;20666;-69
2024/02/20 05:19:03;;;;;;;1.88;1.30;;;20.90;80.40;;;;;;4998743;28;20198;-74
2024/02/20 05:21:32;;;;;;;1.65;1.33;;;20.90;80.60;;;;;;4997457;28;20215;-65
2024/02/20 05:24:03;;;;;;;1.85;1.25;;;20.90;81.40;;;;;;5002318;28;20200;-75
2024/02/20 05:26:32;;;;;;;2.40;1.60;;;20.80;80.40;;;;;;4994109;28;20204;-72
2024/02/20 05:29:03;;;;;;;1.52;1.13;;;20.80;80.70;;;;;;5000916;28;20203;-68
2024/02/20 05:31:34;;;;;;;1.40;1.30;;;20.80;80.70;;;;;;4998232;28;20212;-67
2024/02/20 05:34:02;;;;;;;2.40;1.65;;;20.80;80.80;;;;;;4998939;28;20215;-66
2024/02/20 05:36:33;;;;;;;4.18;1.50;;;20.80;80.70;;;;;;4998604;28;20195;-68
2024/02/20 05:39:02;;;;;;;1.92;1.58;;;20.80;81.40;;;;;;4998177;28;20925;-66
2024/02/20 05:41:32;;;;;;;1.30;1.15;;;20.80;80.50;;;;;;5004043;28;20225;-69
2024/02/20 05:44:00;;;;;;;2.72;1.20;;;20.80;80.70;;;;;;4995804;28;20654;-72
2024/02/20 05:46:31;;;;;;;2.80;1.70;;;20.80;80.70;;;;;;4990295;28;20731;-74
2024/02/20 05:49:04;;;;;;;1.90;1.50;;;20.80;80.50;;;;;;4991891;28;20728;-65
2024/02/20 05:51:34;;;;;;;1.73;1.10;;;20.80;80.50;;;;;;5002792;28;20199;-71
2024/02/20 05:54:02;;;;;;;2.30;1.30;;;20.80;80.60;;;;;;5001273;28;20208;-67
2024/02/20 05:56:32;;;;;;;1.77;1.25;;;20.80;80.60;;;;;;4992951;28;20239;-72
2024/02/20 05:59:01;;;;;;;1.52;1.10;;;20.70;80.60;;;;;;5000378;28;20200;-66
2024/02/20 06:01:27;;;;;;;2.10;1.50;;;20.80;80.70;;;;;;4976402;28;20755;-67
2024/02/20 06:04:00;;;;;;;1.27;1.17;;;20.70;80.70;;;;;;4986832;28;20207;-69
2024/02/20 06:06:26;;;;;;;2.30;1.60;;;20.70;80.70;;;;;;4998401;28;20616;-72
2024/02/20 06:08:53;;;;;;;2.60;1.60;;;20.70;80.70;;;;;;5002628;28;20243;-73
2024/02/20 06:11:31;;;;;;;1.60;1.40;;;20.70;80.80;;;;;;4996317;28;20770;-67
2024/02/20 06:13:59;;;;;;;1.50;1.38;;;20.70;80.80;;;;;;4997754;28;20661;-66
2024/02/20 06:16:32;;;;;;;1.30;1.10;;;20.70;80.70;;;;;;5000048;28;20286;-70
2024/02/20 06:18:59;;;;;;;1.40;1.00;;;20.70;80.70;;;;;;4994554;28;20570;-74
2024/02/20 06:21:28;;;;;;;1.52;1.42;;;20.70;80.60;;;;;;4995441;28;20224;-69
2024/02/20 06:23:56;;;;;;;1.55;1.20;;;20.70;80.50;;;;;;4998613;28;20219;-72
2024/02/20 06:26:25;;;;;;;1.48;1.17;;;20.70;80.50;;;;;;4997499;28;20203;-68
2024/02/20 06:28:53;;;;;;;1.30;1.13;;;20.70;80.40;;;;;;5001649;28;20207;-72
2024/02/20 06:31:19;;;;;;;1.58;1.23;;;20.70;80.70;;;;;;4996633;28;20204;-69
2024/02/20 06:33:49;;;;;;;2.20;1.52;;;20.70;80.80;;;;;;4999054;28;20195;-71
2024/02/20 06:36:16;;;;;;;1.27;1.10;;;20.70;80.80;;;;;;4990117;28;20199;-69
2024/02/20 06:38:43;;;;;;;1.65;1.30;;;20.70;80.70;;;;;;4991413;28;20577;-69
2024/02/20 06:41:10;;;;;;;1.38;1.15;;;20.70;80.70;;;;;;4993926;28;20227;-71
2024/02/20 06:43:44;;;;;;;2.42;1.60;;;20.70;80.70;;;;;;4996821;28;20200;-71
2024/02/20 06:46:15;;;;;;;1.90;1.15;;;20.70;80.70;;;;;;4995555;28;20199;-69
2024/02/20 06:48:53;;;;;;;1.38;1.10;;;20.60;80.40;;;;;;4997760;28;20226;-71
2024/02/20 06:51:22;;;;;;;2.40;1.10;;;20.70;80.70;;;;;;4988187;28;20231;-67
2024/02/20 06:53:52;;;;;;;1.50;1.38;;;20.60;80.40;;;;;;4997474;28;20463;-71
2024/02/20 06:56:19;;;;;;;1.80;1.30;;;20.60;80.40;;;;;;4995051;28;20200;-67
2024/02/20 06:58:47;;;;;;;1.30;1.10;;;20.60;80.60;;;;;;4997385;28;20196;-70
2024/02/20 07:01:13;;;;;;;1.55;1.20;;;20.60;80.70;;;;;;4993453;28;20864;-70
2024/02/20 07:03:42;;;;;;;1.75;1.00;;;20.60;80.60;;;;;;4998494;28;20204;-69
2024/02/20 07:06:13;;;;;;;1.30;1.10;;;20.60;80.80;;;;;;4994271;28;20397;-70
2024/02/20 07:08:41;;;;;;;1.90;1.20;;;20.60;80.80;;;;;;4995300;28;20200;-68
2024/02/20 07:11:17;;;;;;;2.55;1.45;;;20.60;80.70;;;;;;4996207;28;20200;-70
2024/02/20 07:13:46;;;;;;;2.05;1.55;;;20.60;80.60;;;;;;4993763;28;20628;-66
2024/02/20 07:16:20;;;;;;;2.08;1.55;;;20.60;80.70;;;;;;4986693;28;20226;-67
2024/02/20 07:18:57;;;;;;;1.55;1.20;;;20.60;80.60;;;;;;4995291;28;20200;-70
2024/02/20 07:21:24;;;;;;;1.50;1.40;;;20.60;80.60;;;;;;4994532;28;20648;-69
2024/02/20 07:23:51;;;;;;;2.13;1.13;;;20.60;80.70;;;;;;4998272;28;20204;-68
2024/02/20 07:26:29;;;;;;;1.55;1.02;;;20.60;80.50;;;;;;4993787;28;20199;-70
2024/02/20 07:28:58;;;;;;;1.80;1.48;;;20.50;80.60;;;;;;5000656;28;20208;-70
2024/02/20 07:31:29;;;;;;;2.58;1.20;;;20.60;80.40;;;;;;4997896;28;20302;-69
2024/02/20 07:33:58;;;;;;;2.03;1.20;;;20.50;80.50;;;;;;4986912;28;20203;-72
2024/02/20 07:36:32;;;;;;;1.20;1.10;;;20.50;80.80;;;;;;4996548;28;20225;-66
2024/02/20 07:38:58;;;;;;;1.50;1.40;;;20.50;80.90;;;;;;5002474;28;20227;-67
2024/02/20 07:41:29;;;;;;;3.22;2.13;;;20.50;81.00;;;;;;4998824;28;20218;-71
2024/02/20 07:44:01;;;;;;;2.72;1.50;;;20.50;80.90;;;;;;4997878;28;20204;-68
2024/02/20 07:46:34;;;;;;;1.58;1.20;;;20.60;81.00;;;;;;4999204;28;20192;-65
2024/02/20 07:49:06;;;;;;;2.28;1.05;;;20.60;81.20;;;;;;4990814;28;20222;-67
2024/02/20 07:51:36;;;;;;;1.60;1.30;;;20.60;81.20;;;;;;4994134;28;20215;-69
2024/02/20 07:54:04;;;;;;;2.17;1.60;;;20.60;81.20;;;;;;4998327;28;20266;-69
2024/02/20 07:56:33;;;;;;;1.55;1.30;;;20.60;81.00;;;;;;4995851;28;20291;-69
2024/02/20 07:59:02;;;;;;;2.08;1.45;;;20.60;81.30;;;;;;4988556;28;20566;-70
2024/02/20 08:01:30;;;;;;;2.53;1.55;;;20.60;81.20;;;;;;4988035;28;20314;-70
2024/02/20 08:04:01;;;;;;;1.63;1.13;;;20.70;81.40;;;;;;4988506;28;20204;-71
2024/02/20 08:06:30;;;;;;;1.90;1.45;;;20.70;81.50;;;;;;4989604;28;20199;-68
2024/02/20 08:09:04;;;;;;;1.40;1.30;;;20.70;81.50;;;;;;4996335;28;20295;-74
2024/02/20 08:11:34;;;;;;;1.50;1.30;;;20.80;81.70;;;;;;4992106;28;20644;-68
2024/02/20 08:14:03;;;;;;;2.33;1.15;;;20.70;81.50;;;;;;4995686;28;20475;-70
2024/02/20 08:16:36;;;;;;;2.10;1.20;;;20.80;81.60;;;;;;4997596;28;20684;-70
2024/02/20 08:19:03;;;;;;;1.77;1.30;;;20.80;81.70;;;;;;4995755;28;20218;-69
2024/02/20 08:21:32;;;;;;;1.38;1.00;;;20.80;81.80;;;;;;4978594;28;20219;-70
2024/02/20 08:24:01;;;;;;;3.63;1.13;;;20.80;81.90;;;;;;4993727;28;20220;-69
2024/02/20 08:26:30;;;;;;;1.30;1.10;;;20.90;82.00;;;;;;5001194;28;20762;-73
2024/02/20 08:29:00;;;;;;;6.10;1.60;;;20.90;82.60;;;;;;4996934;28;20568;-76
2024/02/20 08:31:35;;;;;;;9.35;1.77;;;20.90;82.30;;;;;;5000287;28;20204;-67
2024/02/20 08:34:12;;;;;;;8.75;2.00;;;20.90;82.20;;;;;;4999173;28;20195;-67
2024/02/20 08:36:45;;;;;;;5.35;2.95;;;20.90;82.10;;;;;;4998418;28;21930;-67
2024/02/20 08:39:16;;;;;;;4.28;2.80;;;20.90;81.40;;;;;;4996450;28;20200;-66
2024/02/20 08:41:49;;;;;;;3.95;2.60;;;20.90;80.80;;;;;;4999961;28;20679;-67
2024/02/20 08:44:15;;;;;;;7.22;2.75;;;20.80;80.00;;;;;;4998428;28;20200;-65
2024/02/20 08:46:46;;;;;;;5.60;2.15;;;20.80;80.10;;;;;;5000866;28;20659;-64
2024/02/20 08:49:26;;;;;;;2.92;2.00;;;20.80;80.40;;;;;;4991039;28;20207;-67
2024/02/20 08:51:58;;;;;;;6.28;1.80;;;20.80;80.50;;;;;;4991614;28;20200;-66
2024/02/20 08:54:25;;;;;;;2.88;1.75;;;20.80;80.50;;;;;;4998757;28;20201;-65
2024/02/20 08:56:54;;;;;;;6.20;3.03;;;20.80;80.40;;;;;;4995539;28;20231;-65
2024/02/20 08:59:32;;;;;;;5.72;2.42;;;20.80;80.00;;;;;;4995028;28;20359;-68
2024/02/20 09:02:03;;;;;;;3.65;2.17;;;20.70;78.30;;;;;;4999669;28;20231;-65
2024/02/20 09:04:32;;;;;;;7.78;2.05;;;20.80;79.20;;;;;;4988030;28;20294;-67
2024/02/20 09:07:02;;;;;;;3.55;1.80;;;20.80;79.50;;;;;;5000729;28;20202;-66
2024/02/20 09:09:34;;;;;;;15.98;4.43;;;20.80;79.40;;;;;;4997180;28;21095;-67
2024/02/20 09:12:03;;;;;;;9.25;4.18;;;20.80;78.40;;;;;;4997324;28;20747;-65
2024/02/20 09:14:34;;;;;;;7.43;3.92;;;20.70;75.80;;;;;;4997430;28;20214;-66
2024/02/20 09:17:06;;;;;;;13.55;4.90;;;20.50;73.30;;;;;;4995046;28;20373;-65
2024/02/20 09:19:38;;;;;;;14.63;5.05;;;20.40;72.30;;;;;;4996973;28;20754;-67
2024/02/20 09:22:08;;;;;;;9.13;4.07;;;20.40;73.50;;;;;;4996447;28;20306;-66
2024/02/20 09:24:45;;;;;;;12.52;3.85;;;20.50;75.20;;;;;;4993739;28;20269;-65
2024/02/20 09:27:15;;;;;;;7.45;3.30;;;20.60;75.40;;;;;;4995188;28;20313;-65
2024/02/20 09:29:45;;;;;;;9.55;3.58;;;20.70;75.70;;;;;;4993907;28;20215;-65
2024/02/20 09:32:18;;;;;;;7.90;2.80;;;20.70;75.80;;;;;;4990443;28;21985;-66
2024/02/20 09:34:45;;;;;;;9.35;2.60;;;20.80;75.70;;;;;;4995875;28;20200;-67
2024/02/20 09:37:12;;;;;;;7.30;2.47;;;20.80;75.70;;;;;;4996677;28;20663;-66
2024/02/20 09:39:41;;;;;;;5.35;2.72;;;20.80;75.90;;;;;;4997173;28;20200;-67
2024/02/20 09:42:20;;;;;;;8.88;3.40;;;20.80;76.10;;;;;;4987787;28;20229;-64
2024/02/20 09:44:54;;;;;;;9.63;3.15;;;20.80;76.00;;;;;;4999998;28;20192;-65
2024/02/20 09:47:24;;;;;;;6.88;2.47;;;20.90;76.00;;;;;;4999387;28;20199;-65
2024/02/20 09:49:54;;;;;;;5.78;2.80;;;20.90;76.00;;;;;;4991938;28;20203;-65
2024/02/20 09:52:26;;;;;;;4.30;2.30;;;20.90;76.10;;;;;;4991741;28;20207;-65
2024/02/20 09:54:56;;;;;;;5.35;3.40;;;20.90;76.00;;;;;;4999682;28;20718;-68
2024/02/20 09:57:32;;;;;;;8.97;2.87;;;20.90;75.90;;;;;;4997478;28;20416;-66
2024/02/20 10:00:04;;;;;;;4.90;2.05;;;20.90;76.10;;;;;;4995288;28;21253;-70
2024/02/20 10:02:40;;;;;;;5.50;2.83;;;20.90;76.40;;;;;;4990323;28;20219;-71
2024/02/20 10:05:16;;;;;;;6.70;2.10;;;21.00;76.50;;;;;;4986181;28;20680;-71
2024/02/20 10:07:50;;;;;;;3.93;2.50;;;21.00;76.70;;;;;;4994361;28;20968;-65
2024/02/20 10:10:28;;;;;;;6.68;2.55;;;21.00;77.00;;;;;;4995922;28;20450;-70
2024/02/20 10:13:09;;;;;;;6.20;3.15;;;21.10;77.40;;;;;;4999120;28;20203;-70
2024/02/20 10:15:40;;;;;;;7.68;2.65;;;21.10;77.80;;;;;;4997544;28;20220;-70
2024/02/20 10:18:27;;;;;;;7.73;2.50;;;21.20;78.20;;;;;;4986762;28;20208;-70
2024/02/20 10:21:07;;;;;;;4.75;2.30;;;21.20;78.40;;;;;;4988595;28;20614;-66
2024/02/20 10:23:41;;;;;;;4.53;2.37;;;21.20;78.40;;;;;;4990476;28;20227;-68
2024/02/20 10:26:11;;;;;;;7.13;2.40;;;21.20;78.40;;;;;;4986012;28;20549;-72
2024/02/20 10:28:49;;;;;;;9.02;2.20;;;21.30;78.40;;;;;;4993662;28;20459;-65
2024/02/20 10:31:28;;;;;;;4.03;2.40;;;21.30;78.40;;;;;;4987125;28;20219;-69
2024/02/20 10:34:04;;;;;;;10.43;3.00;;;21.30;78.40;;;;;;4987969;28;20477;-67
2024/02/20 10:36:35;;;;;;;5.33;2.57;;;21.30;78.20;;;;;;4990154;28;21505;-66
2024/02/20 10:39:11;;;;;;;7.10;2.90;;;21.30;78.20;;;;;;4989146;28;20463;-66
2024/02/20 10:41:46;;;;;;;5.17;2.90;;;21.40;78.40;;;;;;4986146;28;20461;-66
2024/02/20 10:44:13;;;;;;;7.20;2.43;;;21.30;78.10;;;;;;4989351;28;20482;-66
2024/02/20 10:46:43;;;;;;;6.53;2.80;;;21.40;78.20;;;;;;4986672;28;20488;-66
2024/02/20 10:49:30;;;;;;;4.87;2.70;;;21.40;78.20;;;;;;4983551;28;20466;-65
2024/02/20 10:52:06;;;;;;;5.90;2.20;;;21.40;78.00;;;;;;4981784;28;20593;-66
2024/02/20 10:54:39;;;;;;;5.83;2.40;;;21.40;78.10;;;;;;4992074;28;21044;-67
2024/02/20 10:57:07;;;;;;;4.30;2.20;;;21.50;78.20;;;;;;4993324;28;20475;-66
2024/02/20 10:59:48;;;;;;;4.93;3.27;;;21.50;78.20;;;;;;4982549;28;20619;-68
2024/02/20 11:02:24;;;;;;;4.00;2.07;;;21.50;78.30;;;;;;4985990;28;20463;-70
2024/02/20 11:07:48;;;;;;;5.80;2.63;;;21.60;78.30;;;;;;4853801;28;20463;-66
2024/02/20 11:10:22;;;;;;;6.53;2.50;;;21.60;78.30;;;;;;4853043;28;20456;-70
2024/02/20 11:12:50;;;;;;;8.70;2.73;;;21.60;78.40;;;;;;4843000;28;20705;-70
2024/02/20 11:15:23;;;;;;;6.83;2.77;;;21.60;77.90;;;;;;4844947;28;20545;-69
2024/02/20 11:17:55;;;;;;;6.40;2.70;;;21.70;78.40;;;;;;4845138;28;20481;-71
2024/02/20 11:20:35;;;;;;;9.77;4.27;;;21.70;78.30;;;;;;4838601;28;20464;-69
2024/02/20 11:23:16;;;;;;;7.47;3.33;;;21.70;77.70;;;;;;4846833;28;20513;-71
2024/02/20 11:26:06;;;;;;;;;;;;;;;;;;;;;
2024/02/20 11:28:38;;;;;;;9.40;3.30;;;21.70;77.50;;;;;;4854311;28;20486;-74
2024/02/20 11:31:10;;;;;;;8.10;2.93;;;21.70;77.60;;;;;;4852195;28;21352;-75
2024/02/20 11:33:45;;;;;;;4.20;2.80;;;21.80;77.90;;;;;;4848791;28;22098;-75
2024/02/20 11:36:19;;;;;;;5.57;3.10;;;21.80;78.30;;;;;;4830575;28;25393;-75
2024/02/20 11:39:00;;;;;;;7.50;3.20;;;21.80;78.60;;;;;;4842649;28;20492;-76
2024/02/20 11:41:43;;;;;;;6.60;3.30;;;21.80;79.00;;;;;;4845388;28;20695;-73
2024/02/20 11:44:10;;;;;;;5.80;3.00;;;21.90;79.60;;;;;;4844687;28;25532;-74
2024/02/20 11:46:57;;;;;;;6.23;2.63;;;21.90;80.00;;;;;;4851544;28;20470;-72
2024/02/20 11:49:36;;;;;;;8.23;2.67;;;21.90;80.40;;;;;;4850927;28;20466;-74
2024/02/20 11:52:14;;;;;;;4.97;3.00;;;22.00;81.10;;;;;;4848654;28;20598;-74
2024/02/20 11:54:43;;;;;;;7.93;2.67;;;21.90;81.60;;;;;;4852872;28;20463;-75
2024/02/20 11:57:13;;;;;;;6.13;2.77;;;22.00;81.70;;;;;;4849135;28;25193;-73
2024/02/20 11:59:54;;;;;;;4.00;2.30;;;22.00;82.70;;;;;;4844726;28;20852;-73
2024/02/20 12:02:23;;;;;;;8.63;2.30;;;22.00;82.90;;;;;;4849775;28;20677;-78
2024/02/20 12:05:18;;;;;;;5.30;2.73;;;22.00;83.20;;;;;;4851761;28;20780;-77
2024/02/20 12:07:56;;;;;;;8.20;2.43;;;22.10;84.70;;;;;;4852962;28;21089;-74
2024/02/20 12:10:35;;;;;;;8.53;2.97;;;22.10;84.80;;;;;;4863145;28;20998;-75
2024/02/20 12:16:20;;;;;;;5.17;2.30;;;22.10;86.20;;;;;;4815681;28;21012;-78
2024/02/20 12:19:11;;;;;;;;;;;;;;;;;;;;;
2024/02/20 12:21:41;;;;;;;17.50;3.00;;;22.20;85.80;;;;;;4937814;28;21004;-71
2024/02/20 12:24:18;;;;;;;5.57;2.80;;;22.20;86.50;;;;;;4997714;28;20483;-71
2024/02/20 12:29:42;;;;;;;4.90;1.90;;;22.10;86.30;;;;;;5001642;28;20901;-71
2024/02/20 12:32:27;;;;;;;;;;;;;;;;;;;;;
2024/02/20 12:35:04;;;;;;;8.30;3.03;;;22.20;86.70;;;;;;5001568;28;20920;-70
2024/02/20 12:37:31;;;;;;;4.80;2.57;;;22.20;87.10;;;;;;4999255;28;20458;-71
2024/02/20 12:40:16;;;;;;;;;;;;;;;;;;;;;
2024/02/20 12:42:44;;;;;;;4.73;2.43;;;22.20;87.30;;;;;;4775385;28;21076;-73
2024/02/20 12:45:18;;;;;;;3.60;2.10;;;22.20;87.40;;;;;;4776793;28;20778;-72
2024/02/20 12:47:53;;;;;;;6.53;2.43;;;22.20;87.90;;;;;;4802608;28;22905;-73
2024/02/20 12:50:25;;;;;;;6.27;2.30;;;22.20;88.10;;;;;;4789303;28;20516;-72
2024/02/20 12:52:55;;;;;;;3.13;2.30;;;22.20;88.40;;;;;;4802895;28;20593;-72
2024/02/20 12:55:28;;;;;;;4.50;2.23;;;22.20;88.40;;;;;;4800414;28;20861;-76
2024/02/20 12:58:02;;;;;;;4.67;2.50;;;22.20;88.60;;;;;;4800699;28;26816;-71
2024/02/20 13:00:38;;;;;;;17.27;3.37;;;22.20;88.70;;;;;;4806669;28;26393;-79
2024/02/20 13:03:22;;;;;;;6.50;2.80;;;22.20;88.90;;;;;;4808642;28;22659;-75
2024/02/20 13:06:09;;;;;;;5.43;2.50;;;22.20;88.40;;;;;;4795463;28;20886;-73
2024/02/20 13:08:35;;;;;;;6.73;3.97;;;22.20;89.70;;;;;;4800828;28;22451;-75
2024/02/20 13:11:17;;;;;;;11.60;2.77;;;22.20;89.40;;;;;;4795322;28;20728;-70
2024/02/20 13:16:34;;;;;;;3.90;2.20;;;22.30;90.00;;;;;;4809613;28;26509;-67
2024/02/20 13:19:33;;;;;;;;;;;;;;;;;;;;;
2024/02/20 13:22:04;;;;;;;8.20;3.70;;;22.30;90.00;;;;;;4805686;28;20738;-75
2024/02/20 13:24:35;;;;;;;3.60;2.23;;;22.20;87.20;;;;;;4812854;28;21268;-74
2024/02/20 13:27:09;;;;;;;6.87;3.17;;;22.10;87.00;;;;;;4812327;28;26970;-73
2024/02/20 13:29:37;;;;;;;12.43;3.27;;;22.10;87.40;;;;;;4820678;28;22360;-73
2024/02/20 13:32:17;;;;;;;;;;;;;;;;;;;;;